Главная страница
METAR-TAF:

METAR-TAF

Аэропорты :

Парзиван

Закаталы, Азербайджан

широта: 41-33-44N, долгота: 46-40-02E, высота над уровнем моря: 330 м

Текущие метеонаблюдения

Эта сводка был подготовлена 51 минут назад, в 02:00 UTC
Ветер 6 Узел от восточный
Температура 18°C
Влажность 77%
Давление 1019 hPa
Видимость 10 км и более
Отдельные облака на высоте 10000 фута

METAR: UBBY 210200Z 10006KT 9999 SCT100 18/14 Q1019 R33/////// NOSIG RMK MT OP

Время: 06:51 (02:51 UTC)

Прогноз

Эта сводка был подготовлена 51 минут назад, в 02:00 UTC
Прогноз действительный с 21-го 03 UTC до 21-го 12 UTC
Ветер 2 Узел переменных направлений
Видимость 10 км и более
небольшая облачность на высоте 4000 фута
Отдельные облака на высоте 8000 фута

TAF: UBBY 210200Z 2103/2112 VRB02KT 9999 FEW040 SCT080

Метеонаблюдения и прогнозы для более 4000 аэропортов (сводки METAR и TAF).

Имеющиеся станции представлены на карте желтыми и красными точками.

Чтобы увидеть название станции, наведите на нее мышь.

Затем щелкните, чтобы увидеть метеонаблюдения и метеопрогнозы.

Управление картой: чтобы увеличить масштаб, щелкните зеленые кнопки с черным крестиком; чтобы уменьшить масштаб, щелкните зеленую кнопку с тире; для просмотра соседних карт щелкайте зеленые стрелки.


METAR-TAF: